Unidilla, Georgia
Current Conditions -  °F | °C
As of 8:35 PM on Monday 24 Nov 2014 (Local Time) from KPXE Reporting Station
Clear Clear  
Wind Chill: 22°   Ceiling: Unl
Heat Index: 22°   Visibility: 7mi
Dew Point: 19°   Wind: 6mph
Humidity: 85%   Direction: 200°SSW
Pressure: 29.94"   Gusts: NA
Location:  32.2533°N, 83.7537°W
Report Text: KPXE 250135Z AUTO 20005KT 7SM CLR 22/19 A2994 RMK AO2 T02170190
Loading
Personal Weather Stations






























Interactive Weather Map New forecast layout! Learn more

10-Day Weather Forecast

Advertisements
Track Severe Weather on mobile